createdAt,value
2017-09-15T00:00:02.941Z,22.09
2017-09-15T00:00:34.745Z,22.08
2017-09-15T00:01:06.465Z,22.09
2017-09-15T00:01:38.141Z,22.09
2017-09-15T00:02:09.797Z,22.09
2017-09-15T00:02:41.460Z,22.09
2017-09-15T00:03:13.105Z,22.10
2017-09-15T00:03:44.753Z,22.09
2017-09-15T00:04:16.409Z,22.10
2017-09-15T00:04:48.299Z,22.09
2017-09-15T00:05:19.949Z,22.09
2017-09-15T00:05:51.597Z,22.08
2017-09-15T00:06:23.281Z,22.09
2017-09-15T00:06:54.926Z,22.09
2017-09-15T00:07:26.580Z,22.08
2017-09-15T00:07:58.457Z,22.08
2017-09-15T00:08:30.294Z,22.08
2017-09-15T00:09:02.048Z,22.08
2017-09-15T00:09:33.998Z,22.07
2017-09-15T00:10:05.689Z,22.07
2017-09-15T00:10:37.341Z,22.07
2017-09-15T00:11:09.110Z,22.08
2017-09-15T00:11:40.873Z,22.07
2017-09-15T00:12:12.521Z,22.08
2017-09-15T00:12:44.166Z,22.08
2017-09-15T00:13:15.818Z,22.08
2017-09-15T00:13:47.473Z,22.07
2017-09-15T00:14:19.121Z,22.07
2017-09-15T00:14:50.770Z,22.07
2017-09-15T00:15:22.424Z,22.07
2017-09-15T00:15:54.069Z,22.07
2017-09-15T00:16:25.765Z,22.07
2017-09-15T00:16:57.409Z,22.06
2017-09-15T00:17:29.058Z,22.06
2017-09-15T00:18:00.701Z,22.06
2017-09-15T00:18:32.349Z,22.06
2017-09-15T00:19:03.994Z,22.05
2017-09-15T00:19:35.637Z,22.05
2017-09-15T00:20:07.286Z,22.05
2017-09-15T00:20:38.934Z,22.06
2017-09-15T00:21:10.825Z,22.06
2017-09-15T00:21:42.482Z,22.05
2017-09-15T00:22:14.128Z,22.05
2017-09-15T00:22:45.774Z,22.05
2017-09-15T00:23:17.422Z,22.06
2017-09-15T00:23:49.069Z,22.09
2017-09-15T00:24:20.717Z,22.11
2017-09-15T00:24:52.361Z,22.11
2017-09-15T00:25:24.010Z,22.11
2017-09-15T00:25:55.818Z,22.10
2017-09-15T00:26:28.381Z,22.10
2017-09-15T00:27:00.083Z,22.09
2017-09-15T00:27:31.733Z,22.09
2017-09-15T00:28:03.378Z,22.09
2017-09-15T00:28:35.256Z,22.08
2017-09-15T00:29:07.135Z,22.08
2017-09-15T00:29:38.781Z,22.06
2017-09-15T00:30:10.430Z,22.07
2017-09-15T00:30:42.131Z,22.07
2017-09-15T00:31:13.781Z,22.05
2017-09-15T00:31:45.429Z,22.07
2017-09-15T00:32:17.350Z,22.06
2017-09-15T00:32:49.057Z,22.06
2017-09-15T00:33:20.705Z,22.05
2017-09-15T00:33:52.350Z,22.06
2017-09-15T00:34:23.997Z,22.05
2017-09-15T00:34:55.767Z,22.06
2017-09-15T00:35:27.522Z,22.05
2017-09-15T00:35:59.472Z,22.04
2017-09-15T00:36:31.121Z,22.04
2017-09-15T00:37:02.764Z,22.04
2017-09-15T00:37:34.461Z,22.03
2017-09-15T00:38:06.348Z,22.06
2017-09-15T00:38:37.997Z,22.05
2017-09-15T00:39:09.645Z,22.05
2017-09-15T00:39:41.289Z,22.05
2017-09-15T00:40:12.942Z,22.05
2017-09-15T00:40:44.609Z,22.05
2017-09-15T00:41:16.253Z,22.06
2017-09-15T00:41:47.901Z,22.07
2017-09-15T00:42:19.746Z,22.08
2017-09-15T00:42:51.690Z,22.08
2017-09-15T00:43:23.380Z,22.08
2017-09-15T00:43:55.036Z,22.08
2017-09-15T00:44:26.685Z,22.07
2017-09-15T00:44:58.334Z,22.07
2017-09-15T00:45:29.977Z,22.08
2017-09-15T00:46:01.621Z,22.08
2017-09-15T00:46:33.273Z,22.08
2017-09-15T00:47:04.912Z,22.07
2017-09-15T00:47:36.562Z,22.05
2017-09-15T00:48:08.454Z,22.07
2017-09-15T00:48:40.414Z,22.06
2017-09-15T00:49:12.250Z,22.06
2017-09-15T00:49:44.004Z,22.07
2017-09-15T00:50:15.653Z,22.05
2017-09-15T00:50:47.309Z,22.05
2017-09-15T00:51:18.953Z,22.06
2017-09-15T00:51:50.602Z,22.05
2017-09-15T00:52:22.249Z,22.06
2017-09-15T00:52:53.901Z,22.04
2017-09-15T00:53:25.805Z,22.04
2017-09-15T00:53:57.449Z,22.04
2017-09-15T00:54:29.100Z,22.04
2017-09-15T00:55:00.749Z,22.04
2017-09-15T00:55:32.400Z,22.03
2017-09-15T00:56:04.046Z,22.04
2017-09-15T00:56:35.964Z,22.02
2017-09-15T00:57:07.613Z,22.02
2017-09-15T00:57:39.257Z,22.01
2017-09-15T00:58:10.909Z,22.01
2017-09-15T00:58:42.554Z,22.01
2017-09-15T00:59:14.201Z,21.96
2017-09-15T00:59:45.845Z,22.01
2017-09-15T01:00:17.493Z,22.01
2017-09-15T01:00:49.141Z,21.99
2017-09-15T01:01:20.785Z,22.00
2017-09-15T01:01:52.663Z,22.00
2017-09-15T01:02:24.331Z,21.99
2017-09-15T01:02:55.982Z,22.00
2017-09-15T01:03:27.633Z,22.00
2017-09-15T01:03:59.285Z,21.99
2017-09-15T01:04:30.929Z,21.97
2017-09-15T01:05:02.577Z,21.98
2017-09-15T01:05:34.222Z,21.97
2017-09-15T01:06:05.865Z,21.96
2017-09-15T01:06:37.513Z,21.97
2017-09-15T01:07:09.415Z,21.96
2017-09-15T01:07:41.366Z,21.97
2017-09-15T01:08:13.195Z,21.96
2017-09-15T01:08:44.852Z,21.95
2017-09-15T01:09:16.529Z,21.96
2017-09-15T01:09:48.174Z,21.96
2017-09-15T01:10:19.822Z,21.95
2017-09-15T01:10:51.465Z,21.95
2017-09-15T01:11:23.472Z,21.97
2017-09-15T01:11:55.121Z,21.96
2017-09-15T01:12:26.766Z,21.95
2017-09-15T01:12:58.417Z,21.95
2017-09-15T01:13:30.065Z,21.95
2017-09-15T01:14:02.296Z,21.95
2017-09-15T01:14:34.441Z,21.95
2017-09-15T01:15:06.195Z,21.94
2017-09-15T01:15:37.845Z,21.95
2017-09-15T01:16:09.489Z,21.94
2017-09-15T01:16:41.181Z,21.94
2017-09-15T01:17:12.962Z,21.96
2017-09-15T01:17:44.711Z,21.95
2017-09-15T01:18:16.362Z,21.95
2017-09-15T01:18:48.006Z,21.94
2017-09-15T01:19:19.653Z,21.94
2017-09-15T01:19:51.511Z,21.95
2017-09-15T01:20:23.162Z,21.94
2017-09-15T01:20:54.813Z,21.93
2017-09-15T01:21:26.465Z,21.93
2017-09-15T01:21:58.109Z,21.93
2017-09-15T01:22:29.760Z,21.93
2017-09-15T01:23:01.437Z,21.92
2017-09-15T01:23:33.090Z,21.92
2017-09-15T01:24:04.738Z,21.91
2017-09-15T01:24:36.381Z,21.91
2017-09-15T01:25:08.270Z,21.92
2017-09-15T01:25:39.954Z,21.92
2017-09-15T01:26:11.606Z,21.93
2017-09-15T01:26:43.249Z,21.94
2017-09-15T01:27:14.897Z,21.95
2017-09-15T01:27:46.541Z,21.95
2017-09-15T01:28:18.189Z,21.96
2017-09-15T01:28:49.853Z,21.97
2017-09-15T01:29:21.501Z,21.98
2017-09-15T01:29:53.145Z,21.97
2017-09-15T01:30:24.849Z,21.98
2017-09-15T01:30:56.497Z,21.98
2017-09-15T01:31:28.141Z,21.97
2017-09-15T01:31:59.789Z,21.96
2017-09-15T01:32:31.437Z,21.96
2017-09-15T01:33:03.089Z,21.96
2017-09-15T01:33:34.892Z,21.95
2017-09-15T01:34:06.542Z,21.96
2017-09-15T01:34:38.189Z,21.96
2017-09-15T01:35:09.837Z,21.98
2017-09-15T01:35:41.484Z,21.97
2017-09-15T01:36:13.125Z,21.97
2017-09-15T01:36:44.769Z,21.96
2017-09-15T01:37:16.414Z,21.96
2017-09-15T01:37:48.061Z,21.96
2017-09-15T01:38:19.705Z,21.96
2017-09-15T01:38:51.364Z,21.95
2017-09-15T01:39:23.009Z,21.95
2017-09-15T01:39:54.877Z,21.95
2017-09-15T01:40:26.570Z,21.94
2017-09-15T01:40:58.225Z,21.93
2017-09-15T01:41:29.869Z,21.93
2017-09-15T01:42:01.554Z,21.92
2017-09-15T01:42:33.394Z,21.93
2017-09-15T01:43:05.056Z,21.92
2017-09-15T01:43:36.709Z,21.91
2017-09-15T01:44:08.396Z,21.91
2017-09-15T01:44:40.050Z,21.90
2017-09-15T01:45:11.934Z,21.90
2017-09-15T01:45:43.759Z,21.91
2017-09-15T01:46:15.524Z,21.91
2017-09-15T01:46:47.201Z,21.91
2017-09-15T01:47:18.849Z,21.90
2017-09-15T01:47:50.493Z,21.90
2017-09-15T01:48:22.399Z,21.90
2017-09-15T01:48:54.052Z,21.90
2017-09-15T01:49:25.705Z,21.90
2017-09-15T01:49:57.393Z,21.86
2017-09-15T01:50:29.273Z,21.90
2017-09-15T01:51:00.928Z,21.90
2017-09-15T01:51:33.678Z,21.90
2017-09-15T01:52:05.382Z,21.90
2017-09-15T01:52:37.034Z,21.90
2017-09-15T01:53:08.689Z,21.90
2017-09-15T01:53:40.341Z,21.90
2017-09-15T01:54:12.559Z,21.90
2017-09-15T01:54:44.205Z,21.90
2017-09-15T01:55:15.853Z,21.89
2017-09-15T01:55:47.537Z,21.90
2017-09-15T01:56:19.185Z,21.90
2017-09-15T01:56:50.829Z,21.89
2017-09-15T01:57:22.522Z,21.88
2017-09-15T01:57:54.411Z,21.89
2017-09-15T01:58:26.247Z,21.89
2017-09-15T01:58:58.132Z,21.89
2017-09-15T01:59:30.091Z,21.89
2017-09-15T02:00:01.754Z,21.90
2017-09-15T02:00:33.542Z,21.90
2017-09-15T02:01:05.193Z,21.90
2017-09-15T02:01:36.848Z,21.89
2017-09-15T02:02:08.497Z,21.89
2017-09-15T02:02:40.141Z,21.88
2017-09-15T02:03:11.781Z,21.88
2017-09-15T02:03:43.426Z,21.89
2017-09-15T02:04:15.086Z,21.89
2017-09-15T02:04:46.733Z,21.89
2017-09-15T02:05:18.377Z,21.88
2017-09-15T02:05:50.201Z,21.88
2017-09-15T02:06:21.854Z,21.88
2017-09-15T02:06:53.505Z,21.88
2017-09-15T02:07:25.149Z,21.88
2017-09-15T02:07:56.837Z,21.88
2017-09-15T02:08:28.489Z,21.87
2017-09-15T02:09:00.137Z,21.88
2017-09-15T02:09:31.786Z,21.85
2017-09-15T02:10:03.676Z,21.89
2017-09-15T02:10:38.732Z,21.88
2017-09-15T02:11:10.945Z,21.88
2017-09-15T02:11:42.627Z,21.88
2017-09-15T02:12:14.317Z,21.88
2017-09-15T02:12:45.965Z,21.87
2017-09-15T02:13:17.863Z,21.88
2017-09-15T02:13:49.811Z,21.88
2017-09-15T02:14:21.762Z,21.88
2017-09-15T02:14:53.415Z,21.87
2017-09-15T02:15:25.061Z,21.87
2017-09-15T02:15:56.705Z,21.90
2017-09-15T02:16:28.345Z,21.91
2017-09-15T02:17:00.045Z,21.90
2017-09-15T02:17:31.689Z,21.89
2017-09-15T02:18:03.562Z,21.89
2017-09-15T02:18:35.214Z,21.89
2017-09-15T02:19:06.857Z,21.88
2017-09-15T02:19:38.501Z,21.88
2017-09-15T02:20:10.149Z,21.87
2017-09-15T02:20:41.793Z,21.87
2017-09-15T02:21:13.438Z,21.87
2017-09-15T02:21:45.090Z,21.87
2017-09-15T02:22:16.733Z,21.87
2017-09-15T02:22:48.379Z,21.86
2017-09-15T02:23:20.025Z,21.84
2017-09-15T02:23:51.673Z,21.85
2017-09-15T02:24:23.572Z,21.87
2017-09-15T02:24:55.222Z,21.90
2017-09-15T02:25:27.099Z,21.91
2017-09-15T02:25:58.749Z,21.91
2017-09-15T02:26:30.446Z,21.90
2017-09-15T02:27:02.287Z,21.91
2017-09-15T02:27:34.037Z,21.90
2017-09-15T02:28:05.987Z,21.90
2017-09-15T02:28:37.637Z,21.88
2017-09-15T02:29:09.281Z,21.88
2017-09-15T02:29:42.138Z,21.88
2017-09-15T02:30:16.066Z,21.89
2017-09-15T02:30:48.804Z,21.88
2017-09-15T02:31:20.727Z,21.89
2017-09-15T02:31:52.965Z,21.90
2017-09-15T02:32:25.572Z,21.91
2017-09-15T02:32:57.414Z,21.92
2017-09-15T02:33:29.074Z,21.93
2017-09-15T02:34:00.717Z,21.93
2017-09-15T02:34:32.366Z,21.95
2017-09-15T02:35:04.014Z,21.95
2017-09-15T02:35:35.665Z,21.95
2017-09-15T02:36:07.513Z,21.95
2017-09-15T02:36:39.162Z,21.94
2017-09-15T02:37:10.810Z,21.93
2017-09-15T02:37:42.457Z,21.93
2017-09-15T02:38:15.786Z,21.92
2017-09-15T02:38:48.025Z,21.91
2017-09-15T02:39:19.681Z,21.90
2017-09-15T02:39:51.876Z,21.91
2017-09-15T02:40:23.525Z,21.92
2017-09-15T02:40:55.177Z,21.94
2017-09-15T02:41:27.171Z,21.99
2017-09-15T02:41:59.121Z,22.03
2017-09-15T02:42:30.790Z,22.06
2017-09-15T02:43:02.525Z,22.10
2017-09-15T02:43:34.174Z,22.01
2017-09-15T02:44:05.818Z,21.95
2017-09-15T02:44:37.462Z,21.91
2017-09-15T02:45:09.109Z,21.84
2017-09-15T02:45:40.757Z,21.76
2017-09-15T02:46:12.404Z,21.67
2017-09-15T02:46:44.057Z,21.62
2017-09-15T02:47:15.850Z,21.58
2017-09-15T02:47:47.498Z,21.54
2017-09-15T02:48:19.438Z,21.49
2017-09-15T02:48:51.387Z,21.46
2017-09-15T02:49:24.259Z,21.43
2017-09-15T02:49:56.164Z,21.41
2017-09-15T02:50:27.814Z,21.37
2017-09-15T02:50:59.490Z,21.30
2017-09-15T02:51:31.141Z,21.28
2017-09-15T02:52:02.797Z,21.25
2017-09-15T02:52:34.665Z,21.24
2017-09-15T02:53:06.366Z,21.22
2017-09-15T02:53:38.319Z,21.20
2017-09-15T02:54:09.969Z,21.25
2017-09-15T02:54:41.654Z,21.25
2017-09-15T02:55:13.548Z,21.26
2017-09-15T02:55:45.197Z,21.26
2017-09-15T02:56:17.078Z,21.24
2017-09-15T02:56:48.729Z,21.23
2017-09-15T02:57:20.373Z,21.21
2017-09-15T02:57:52.018Z,21.18
2017-09-15T02:58:23.673Z,21.11
2017-09-15T02:58:55.325Z,21.05
2017-09-15T02:59:26.989Z,21.08
2017-09-15T02:59:58.658Z,21.18
2017-09-15T03:00:30.305Z,21.33
2017-09-15T03:01:01.947Z,21.39
2017-09-15T03:01:33.839Z,21.44
2017-09-15T03:02:05.546Z,21.47
2017-09-15T03:02:37.193Z,21.50
2017-09-15T03:03:08.840Z,21.52
2017-09-15T03:03:40.490Z,21.57
2017-09-15T03:04:12.133Z,21.60
2017-09-15T03:04:43.786Z,21.62
2017-09-15T03:05:15.436Z,21.65
2017-09-15T03:05:47.089Z,21.67
2017-09-15T03:06:18.949Z,21.69
2017-09-15T03:06:50.797Z,21.70
2017-09-15T03:07:22.445Z,21.71
2017-09-15T03:07:54.094Z,21.72
2017-09-15T03:08:25.737Z,21.75
2017-09-15T03:08:57.385Z,21.75
2017-09-15T03:09:29.029Z,21.78
2017-09-15T03:10:00.673Z,21.79
2017-09-15T03:10:32.358Z,21.79
2017-09-15T03:11:04.034Z,21.82
2017-09-15T03:11:35.696Z,21.83
2017-09-15T03:12:07.384Z,21.85
2017-09-15T03:12:39.033Z,21.86
2017-09-15T03:13:10.908Z,21.87
2017-09-15T03:13:42.557Z,21.87
2017-09-15T03:14:14.206Z,21.90
2017-09-15T03:14:46.141Z,21.91
2017-09-15T03:15:17.789Z,21.92
2017-09-15T03:15:49.437Z,21.93
2017-09-15T03:16:21.102Z,21.93
2017-09-15T03:16:52.749Z,21.93
2017-09-15T03:17:24.402Z,21.95
2017-09-15T03:17:56.049Z,21.96
2017-09-15T03:18:27.697Z,21.96
2017-09-15T03:18:59.345Z,21.95
2017-09-15T03:19:31.186Z,21.96
2017-09-15T03:20:02.889Z,21.95
2017-09-15T03:20:34.533Z,21.95
2017-09-15T03:21:06.177Z,21.95
2017-09-15T03:21:37.829Z,21.95
2017-09-15T03:22:09.477Z,21.93
2017-09-15T03:22:41.134Z,21.96
2017-09-15T03:23:12.781Z,21.95
2017-09-15T03:23:44.623Z,21.96
2017-09-15T03:24:16.618Z,21.97
2017-09-15T03:24:48.273Z,21.96
2017-09-15T03:25:19.958Z,21.97
2017-09-15T03:25:51.606Z,21.95
2017-09-15T03:26:23.491Z,21.95
2017-09-15T03:26:55.441Z,21.95
2017-09-15T03:27:27.089Z,21.95
2017-09-15T03:27:58.789Z,21.94
2017-09-15T03:28:30.561Z,21.94
2017-09-15T03:29:02.316Z,21.93
2017-09-15T03:29:33.965Z,21.92
2017-09-15T03:30:05.618Z,21.92
2017-09-15T03:30:37.547Z,21.91
2017-09-15T03:31:09.198Z,21.91
2017-09-15T03:31:42.814Z,21.90
2017-09-15T03:32:14.757Z,21.90
2017-09-15T03:32:48.225Z,21.90
2017-09-15T03:33:20.753Z,21.88
2017-09-15T03:33:52.729Z,21.86
2017-09-15T03:34:24.377Z,21.86
2017-09-15T03:34:56.029Z,21.85
2017-09-15T03:35:27.673Z,21.84
2017-09-15T03:35:59.317Z,21.83
2017-09-15T03:36:30.961Z,21.83
2017-09-15T03:37:02.606Z,21.83
2017-09-15T03:37:34.245Z,21.81
2017-09-15T03:38:05.889Z,21.80
2017-09-15T03:38:37.529Z,21.79
2017-09-15T03:39:09.179Z,21.78
2017-09-15T03:39:40.825Z,21.78
2017-09-15T03:40:12.473Z,21.78
2017-09-15T03:40:44.122Z,21.77
2017-09-15T03:41:15.765Z,21.76
2017-09-15T03:41:47.414Z,21.75
2017-09-15T03:42:19.202Z,21.76
2017-09-15T03:42:50.849Z,21.76
2017-09-15T03:43:22.493Z,21.76
2017-09-15T03:43:54.193Z,21.75
2017-09-15T03:44:25.841Z,21.75
2017-09-15T03:44:57.717Z,21.74
2017-09-15T03:45:29.370Z,21.74
2017-09-15T03:46:01.025Z,21.73
2017-09-15T03:46:32.677Z,21.73
2017-09-15T03:47:04.321Z,21.72
2017-09-15T03:47:35.965Z,21.73
2017-09-15T03:48:07.605Z,21.72
2017-09-15T03:48:39.250Z,21.72
2017-09-15T03:49:11.149Z,21.72
2017-09-15T03:49:43.108Z,21.70
2017-09-15T03:50:14.757Z,21.70
2017-09-15T03:50:46.411Z,21.69
2017-09-15T03:51:18.052Z,21.69
2017-09-15T03:51:49.701Z,21.67
2017-09-15T03:52:21.345Z,21.68
2017-09-15T03:52:52.989Z,21.66
2017-09-15T03:53:24.638Z,21.65
2017-09-15T03:53:56.281Z,21.66
2017-09-15T03:54:28.133Z,21.66
2017-09-15T03:54:59.779Z,21.65
2017-09-15T03:55:31.433Z,21.66
2017-09-15T03:56:04.011Z,21.65
2017-09-15T03:56:36.249Z,21.65
2017-09-15T03:57:08.752Z,21.64
2017-09-15T03:57:40.502Z,21.64
2017-09-15T03:58:12.156Z,21.64
2017-09-15T03:58:43.803Z,21.61
2017-09-15T03:59:15.450Z,21.61
2017-09-15T03:59:47.634Z,21.60
2017-09-15T04:00:19.281Z,21.59
2017-09-15T04:00:50.925Z,21.59
2017-09-15T04:01:22.581Z,21.58
2017-09-15T04:01:54.229Z,21.57
2017-09-15T04:02:25.891Z,21.57
2017-09-15T04:02:57.541Z,21.57
2017-09-15T04:03:29.185Z,21.57
2017-09-15T04:04:01.080Z,21.57
2017-09-15T04:04:33.212Z,21.56
2017-09-15T04:05:05.025Z,21.56
2017-09-15T04:05:36.901Z,21.55
2017-09-15T04:06:08.550Z,21.55
2017-09-15T04:06:41.485Z,21.54
2017-09-15T04:07:13.137Z,21.54
2017-09-15T04:07:44.791Z,21.53
2017-09-15T04:08:18.054Z,21.53
2017-09-15T04:08:50.099Z,21.52
2017-09-15T04:09:21.846Z,21.52
2017-09-15T04:09:54.062Z,21.52
2017-09-15T04:10:26.214Z,21.51
2017-09-15T04:10:57.870Z,21.51
2017-09-15T04:11:29.898Z,21.49
2017-09-15T04:12:01.549Z,21.49
2017-09-15T04:12:36.023Z,21.49
2017-09-15T04:13:07.693Z,21.48
2017-09-15T04:13:39.552Z,21.48
2017-09-15T04:14:11.593Z,21.48
2017-09-15T04:14:43.237Z,21.48
2017-09-15T04:15:15.097Z,21.48
2017-09-15T04:15:46.770Z,21.46
2017-09-15T04:16:19.027Z,21.47
2017-09-15T04:16:51.283Z,21.47
2017-09-15T04:17:23.829Z,21.46
2017-09-15T04:17:55.489Z,21.46
2017-09-15T04:18:27.742Z,21.46
2017-09-15T04:18:59.587Z,21.44
2017-09-15T04:19:31.337Z,21.44
2017-09-15T04:20:03.313Z,21.44
2017-09-15T04:20:35.235Z,21.44
2017-09-15T04:21:07.130Z,21.43
2017-09-15T04:21:38.773Z,21.44
2017-09-15T04:22:10.421Z,21.43
2017-09-15T04:22:42.065Z,21.42
2017-09-15T04:23:13.713Z,21.42
2017-09-15T04:23:45.394Z,21.42
2017-09-15T04:24:17.082Z,21.41
2017-09-15T04:24:48.734Z,21.41
2017-09-15T04:25:20.382Z,21.41
2017-09-15T04:25:52.267Z,21.40
2017-09-15T04:26:23.917Z,21.40
2017-09-15T04:26:55.565Z,21.40
2017-09-15T04:27:27.213Z,21.39
2017-09-15T04:27:58.856Z,21.39
2017-09-15T04:28:30.553Z,21.39
2017-09-15T04:29:02.431Z,21.39
2017-09-15T04:29:34.077Z,21.38
2017-09-15T04:30:05.721Z,21.38
2017-09-15T04:30:37.369Z,21.38
2017-09-15T04:31:09.014Z,21.38
2017-09-15T04:31:40.662Z,21.38
2017-09-15T04:32:12.305Z,21.37
2017-09-15T04:32:43.949Z,21.37
2017-09-15T04:33:15.593Z,21.37
2017-09-15T04:33:47.512Z,21.36
2017-09-15T04:34:19.166Z,21.36
2017-09-15T04:34:50.810Z,21.36
2017-09-15T04:35:22.461Z,21.36
2017-09-15T04:35:54.110Z,21.35
2017-09-15T04:36:25.757Z,21.35
2017-09-15T04:36:57.609Z,21.36
2017-09-15T04:37:29.257Z,21.34
2017-09-15T04:38:00.953Z,21.34
2017-09-15T04:38:32.779Z,21.34
2017-09-15T04:39:04.544Z,21.34
2017-09-15T04:39:36.201Z,21.30
2017-09-15T04:40:08.027Z,21.34
2017-09-15T04:40:39.730Z,21.33
2017-09-15T04:41:11.416Z,21.33
2017-09-15T04:41:43.244Z,21.33
2017-09-15T04:42:14.941Z,21.33
2017-09-15T04:42:46.594Z,21.32
2017-09-15T04:43:18.259Z,21.32
2017-09-15T04:43:49.945Z,21.32
2017-09-15T04:44:21.593Z,21.31
2017-09-15T04:44:53.249Z,21.31
2017-09-15T04:45:24.889Z,21.31
2017-09-15T04:45:56.533Z,21.31
2017-09-15T04:46:28.181Z,21.30
2017-09-15T04:46:59.851Z,21.30
2017-09-15T04:47:31.735Z,21.30
2017-09-15T04:48:03.576Z,21.30
2017-09-15T04:48:35.238Z,21.30
2017-09-15T04:49:06.893Z,21.30
2017-09-15T04:49:38.596Z,21.29
2017-09-15T04:50:10.494Z,21.29
2017-09-15T04:50:42.149Z,21.29
2017-09-15T04:51:13.802Z,21.28
2017-09-15T04:51:45.454Z,21.28
2017-09-15T04:52:17.147Z,21.27
2017-09-15T04:52:48.793Z,21.28
2017-09-15T04:53:20.437Z,21.28
2017-09-15T04:53:52.361Z,21.27
2017-09-15T04:54:24.208Z,21.27
2017-09-15T04:54:55.881Z,21.27
2017-09-15T04:55:27.789Z,21.26
2017-09-15T04:55:59.543Z,21.26
2017-09-15T04:56:31.200Z,21.27
2017-09-15T04:57:03.050Z,21.27
2017-09-15T04:57:34.698Z,21.25
2017-09-15T04:58:06.349Z,21.25
2017-09-15T04:58:37.994Z,21.25
2017-09-15T04:59:09.698Z,21.25
2017-09-15T04:59:41.651Z,21.25
2017-09-15T05:00:13.302Z,21.24
2017-09-15T05:00:44.945Z,21.25
2017-09-15T05:01:16.597Z,21.25
2017-09-15T05:01:48.442Z,21.24
2017-09-15T05:02:20.093Z,21.24
2017-09-15T05:02:51.745Z,21.24
2017-09-15T05:03:23.416Z,21.23
2017-09-15T05:03:55.280Z,21.23
2017-09-15T05:04:26.967Z,21.23
2017-09-15T05:04:58.617Z,21.22
2017-09-15T05:05:30.269Z,21.22
2017-09-15T05:06:01.986Z,21.21
2017-09-15T05:06:33.639Z,21.22
2017-09-15T05:07:05.337Z,21.21
2017-09-15T05:07:37.119Z,21.22
2017-09-15T05:08:08.773Z,21.21
2017-09-15T05:08:40.429Z,21.21
2017-09-15T05:09:12.074Z,21.20
2017-09-15T05:09:43.725Z,21.20
2017-09-15T05:10:15.411Z,21.20
2017-09-15T05:10:47.061Z,21.21
2017-09-15T05:11:19.001Z,21.19
2017-09-15T05:11:50.650Z,21.20
2017-09-15T05:12:22.293Z,21.20
2017-09-15T05:12:54.002Z,21.17
2017-09-15T05:13:25.876Z,21.19
2017-09-15T05:13:57.526Z,21.19
2017-09-15T05:14:29.192Z,21.18
2017-09-15T05:15:01.111Z,21.19
2017-09-15T05:15:32.970Z,21.19
2017-09-15T05:16:04.617Z,21.18
2017-09-15T05:16:36.337Z,21.18
2017-09-15T05:17:08.169Z,21.18
2017-09-15T05:17:39.938Z,21.18
2017-09-15T05:18:11.593Z,21.17
2017-09-15T05:18:43.237Z,21.18
2017-09-15T05:19:14.882Z,21.17
2017-09-15T05:19:46.530Z,21.17
2017-09-15T05:20:18.174Z,21.17
2017-09-15T05:20:49.829Z,21.17
2017-09-15T05:21:21.485Z,21.16
2017-09-15T05:21:53.187Z,21.17
2017-09-15T05:22:24.840Z,21.16
2017-09-15T05:22:56.482Z,21.16
2017-09-15T05:23:28.218Z,21.16
2017-09-15T05:23:59.861Z,21.16
2017-09-15T05:24:31.501Z,21.16
2017-09-15T05:25:03.173Z,21.15
2017-09-15T05:25:35.042Z,21.14
2017-09-15T05:26:06.818Z,21.15
2017-09-15T05:26:38.470Z,21.14
2017-09-15T05:27:10.126Z,21.15
2017-09-15T05:27:41.990Z,21.14
2017-09-15T05:28:13.692Z,21.15
2017-09-15T05:28:45.557Z,21.14
2017-09-15T05:29:17.285Z,21.13
2017-09-15T05:29:48.937Z,21.13
2017-09-15T05:30:20.585Z,21.14
2017-09-15T05:30:52.234Z,21.14
2017-09-15T05:31:23.994Z,21.13
2017-09-15T05:31:55.802Z,21.13
2017-09-15T05:32:27.454Z,21.12
2017-09-15T05:32:59.102Z,21.12
2017-09-15T05:33:30.750Z,21.12
2017-09-15T05:34:02.394Z,21.11
2017-09-15T05:34:34.046Z,21.11
2017-09-15T05:35:05.761Z,21.11
2017-09-15T05:35:37.601Z,21.12
2017-09-15T05:36:09.551Z,21.12
2017-09-15T05:36:42.054Z,21.11
2017-09-15T05:37:13.700Z,21.11
2017-09-15T05:37:45.350Z,21.11
2017-09-15T05:38:17.039Z,21.11
2017-09-15T05:38:48.902Z,21.11
2017-09-15T05:39:20.553Z,21.11
2017-09-15T05:39:52.222Z,21.10
2017-09-15T05:40:23.873Z,21.10
2017-09-15T05:40:55.550Z,21.10
2017-09-15T05:41:27.396Z,21.10
2017-09-15T05:41:59.055Z,21.10
2017-09-15T05:42:30.701Z,21.10
2017-09-15T05:43:02.349Z,21.10
2017-09-15T05:43:34.305Z,21.10
2017-09-15T05:44:06.021Z,21.10
2017-09-15T05:44:38.281Z,21.09
2017-09-15T05:45:09.969Z,21.10
2017-09-15T05:45:41.617Z,21.10
2017-09-15T05:46:13.321Z,21.09
2017-09-15T05:46:44.970Z,21.10
2017-09-15T05:47:16.613Z,21.09
2017-09-15T05:47:48.257Z,21.09
2017-09-15T05:48:20.079Z,21.10
2017-09-15T05:48:51.729Z,21.09
2017-09-15T05:49:23.374Z,21.10
2017-09-15T05:49:55.017Z,21.09
2017-09-15T05:50:26.803Z,21.10
2017-09-15T05:50:58.595Z,21.09
2017-09-15T05:51:30.545Z,21.09
2017-09-15T05:52:02.205Z,21.09
2017-09-15T05:52:33.853Z,21.09
2017-09-15T05:53:05.714Z,21.09
2017-09-15T05:53:37.726Z,21.10
2017-09-15T05:54:09.697Z,21.10
2017-09-15T05:54:41.349Z,21.10
2017-09-15T05:55:12.997Z,21.10
2017-09-15T05:55:44.649Z,21.09
2017-09-15T05:56:16.301Z,21.10
2017-09-15T05:56:48.192Z,21.10
2017-09-15T05:57:20.077Z,21.10
2017-09-15T05:57:51.725Z,21.10
2017-09-15T05:58:23.384Z,21.10
2017-09-15T05:58:55.118Z,21.11
2017-09-15T05:59:26.778Z,21.11
2017-09-15T05:59:58.657Z,21.11
2017-09-15T06:00:30.607Z,21.12
2017-09-15T06:01:02.257Z,21.11
2017-09-15T06:01:33.902Z,21.13
2017-09-15T06:02:05.546Z,21.13
2017-09-15T06:02:37.197Z,21.14
2017-09-15T06:03:08.838Z,21.14
2017-09-15T06:03:40.533Z,21.15
2017-09-15T06:04:12.361Z,21.15
2017-09-15T06:04:44.005Z,21.17
2017-09-15T06:05:15.653Z,21.15
2017-09-15T06:05:47.335Z,21.18
2017-09-15T06:06:18.989Z,21.18
2017-09-15T06:06:51.454Z,21.18
2017-09-15T06:07:23.492Z,21.19
2017-09-15T06:07:55.396Z,21.20
2017-09-15T06:08:27.517Z,21.22
2017-09-15T06:08:59.177Z,21.22
2017-09-15T06:09:30.829Z,21.23
2017-09-15T06:10:02.473Z,21.24
2017-09-15T06:10:34.118Z,21.24
2017-09-15T06:11:05.902Z,21.24
2017-09-15T06:11:37.593Z,21.24
2017-09-15T06:12:09.242Z,21.25
2017-09-15T06:12:40.893Z,21.25
2017-09-15T06:13:12.779Z,21.25
2017-09-15T06:13:44.433Z,21.25
2017-09-15T06:14:16.368Z,21.24
2017-09-15T06:14:48.017Z,21.25
2017-09-15T06:15:19.670Z,21.24
2017-09-15T06:15:51.601Z,21.25
2017-09-15T06:16:23.249Z,21.26
2017-09-15T06:16:54.893Z,21.27
2017-09-15T06:17:26.545Z,21.26
2017-09-15T06:17:58.197Z,21.25
2017-09-15T06:18:29.837Z,21.25
2017-09-15T06:19:01.485Z,21.25
2017-09-15T06:19:33.129Z,21.25
2017-09-15T06:20:04.983Z,21.25
2017-09-15T06:20:36.630Z,21.26
2017-09-15T06:21:08.327Z,21.26
2017-09-15T06:21:40.201Z,21.25
2017-09-15T06:22:11.909Z,21.27
2017-09-15T06:22:43.609Z,21.27
2017-09-15T06:23:15.321Z,21.27
2017-09-15T06:23:46.969Z,21.27
2017-09-15T06:24:18.618Z,21.28
2017-09-15T06:24:50.260Z,21.27
2017-09-15T06:25:21.913Z,21.27
2017-09-15T06:25:58.021Z,21.27
2017-09-15T06:26:29.669Z,21.26
2017-09-15T06:27:01.314Z,21.26
2017-09-15T06:27:32.964Z,21.26
2017-09-15T06:28:04.862Z,21.26
2017-09-15T06:28:37.429Z,21.24
2017-09-15T06:29:10.223Z,21.25
2017-09-15T06:29:42.178Z,21.25
2017-09-15T06:30:13.851Z,21.25
2017-09-15T06:30:45.505Z,21.24
2017-09-15T06:31:17.157Z,21.24
2017-09-15T06:31:48.847Z,21.25
2017-09-15T06:32:20.498Z,21.23
2017-09-15T06:32:52.145Z,21.22
2017-09-15T06:33:24.010Z,21.22
2017-09-15T06:33:55.706Z,21.21
2017-09-15T06:34:27.363Z,21.21
2017-09-15T06:34:59.006Z,21.21
2017-09-15T06:35:30.653Z,21.19
2017-09-15T06:36:02.309Z,21.20
2017-09-15T06:36:33.957Z,21.19
2017-09-15T06:37:05.597Z,21.18
2017-09-15T06:37:37.245Z,21.18
2017-09-15T06:38:08.893Z,21.17
2017-09-15T06:38:40.549Z,21.17
2017-09-15T06:39:12.249Z,21.17
2017-09-15T06:39:43.897Z,21.16
2017-09-15T06:40:15.541Z,21.16
2017-09-15T06:40:47.371Z,21.16
2017-09-15T06:41:19.021Z,21.15
2017-09-15T06:41:50.685Z,21.15
2017-09-15T06:42:22.605Z,21.15
2017-09-15T06:42:54.274Z,21.14
2017-09-15T06:43:25.921Z,21.14
2017-09-15T06:43:57.561Z,21.14
2017-09-15T06:44:29.435Z,21.13
2017-09-15T06:45:01.077Z,21.13
2017-09-15T06:45:32.764Z,21.13
2017-09-15T06:46:04.413Z,21.12
2017-09-15T06:46:36.069Z,21.13
2017-09-15T06:47:07.714Z,21.12
2017-09-15T06:47:39.410Z,21.12
2017-09-15T06:48:11.308Z,21.12
2017-09-15T06:48:42.966Z,21.11